Zenica, Bosnia and Herzegovina
Current Conditions -  °F | °C
As of 9:30 AM on Wednesday 26 Nov 2014 (Local Time) from LQSA Reporting Station
Haze Haze  
Wind Chill: 37°   Ceiling: 1100
Heat Index: 37°   Visibility: 1.2mi
Dew Point: 36°   Wind: 1mph
Humidity: 93%   Direction: NA
Pressure: 30.18"   Gusts: NA
Location:  44.2°N, 17.91°E
Report Text: LQSA 260730Z VRB01KT 2000 BR OVC011 03/02 Q1022 NOSIG
Loading
Personal Weather Stations






























Interactive Weather Map New forecast layout! Learn more

10-Day Weather Forecast

Advertisements
Track Severe Weather on mobile